Time;durP1;ratioP1;P1;durP2;ratioP2;P2;SDS_P1;SDS_P2;PMS_P1;PMS_P2;Temp;Humidity;BMP_temperature;BMP_pressure;BME280_temperature;BME280_humidity;BME280_pressure;Samples;Min_cycle;Max_cycle;Signal;HPM_P1;HPM_P2
2023/07/10 00:02:03;;;;;;;10.80;3.90;;;;;;;;;;5001650;28;20030;-63
2023/07/10 00:04:29;;;;;;;7.60;4.28;;;;;;;;;;5003952;28;20444;-62
2023/07/10 00:06:54;;;;;;;7.77;4.07;;;;;;;;;;5018874;28;20029;-62
2023/07/10 00:09:19;;;;;;;7.45;4.43;;;;;;;;;;5011024;28;20046;-63
2023/07/10 00:11:45;;;;;;;8.07;4.47;;;;;;;;;;4999854;28;20113;-63
2023/07/10 00:14:21;;;;;;;8.65;4.40;;;;;;;;;;5009452;28;20025;-61
2023/07/10 00:16:46;;;;;;;8.05;4.60;;;;;;;;;;5012760;28;20013;-62
2023/07/10 00:19:11;;;;;;;8.52;5.32;;;;;;;;;;5023016;28;20406;-63
2023/07/10 00:21:37;;;;;;;10.17;4.37;;;;;;;;;;5010824;28;20030;-62
2023/07/10 00:24:02;;;;;;;8.70;5.03;;;;;;;;;;5008590;28;20138;-63
2023/07/10 00:26:28;;;;;;;7.55;4.53;;;;;;;;;;5010174;28;20030;-62
2023/07/10 00:28:55;;;;;;;8.57;4.70;;;;;;;;;;5010859;28;20025;-64
2023/07/10 00:31:20;;;;;;;7.90;5.18;;;;;;;;;;5010339;28;20038;-64
2023/07/10 00:33:47;;;;;;;7.70;5.07;;;;;;;;;;5009629;28;20095;-64
2023/07/10 00:36:25;;;;;;;7.05;4.63;;;;;;;;;;5010709;28;20021;-63
2023/07/10 00:38:50;;;;;;;7.18;4.70;;;;;;;;;;5010407;28;20712;-62
2023/07/10 00:41:15;;;;;;;7.70;4.72;;;;;;;;;;5026089;28;20030;-62
2023/07/10 00:43:52;;;;;;;8.43;4.83;;;;;;;;;;5013686;28;20017;-61
2023/07/10 00:46:31;;;;;;;8.60;4.70;;;;;;;;;;5014100;28;20033;-63
2023/07/10 00:49:02;;;;;;;9.18;4.95;;;;;;;;;;5014275;28;20176;-62
2023/07/10 00:51:30;;;;;;;8.75;5.20;;;;;;;;;;5014214;28;20393;-61
2023/07/10 00:53:56;;;;;;;7.70;4.78;;;;;;;;;;5013622;28;20532;-61
2023/07/10 00:56:22;;;;;;;7.30;4.43;;;;;;;;;;5019594;28;20042;-63
2023/07/10 00:58:48;;;;;;;8.13;5.50;;;;;;;;;;5013684;28;20048;-63
2023/07/10 01:01:15;;;;;;;7.45;4.43;;;;;;;;;;5014526;28;20022;-62
2023/07/10 01:03:41;;;;;;;10.77;5.18;;;;;;;;;;5013537;28;20018;-63
2023/07/10 01:06:08;;;;;;;9.50;5.30;;;;;;;;;;5014983;28;20072;-62
2023/07/10 01:08:34;;;;;;;10.30;4.93;;;;;;;;;;5022604;28;20056;-62
2023/07/10 01:10:59;;;;;;;8.50;5.03;;;;;;;;;;5033474;28;20057;-62
2023/07/10 01:13:24;;;;;;;7.37;4.60;;;;;;;;;;5006934;28;20033;-62
2023/07/10 01:15:49;;;;;;;7.43;4.57;;;;;;;;;;5010664;28;20528;-63
2023/07/10 01:18:15;;;;;;;6.88;4.47;;;;;;;;;;5013855;28;20026;-64
2023/07/10 01:20:46;;;;;;;8.98;5.50;;;;;;;;;;4997184;28;20010;-63
2023/07/10 01:23:11;;;;;;;7.63;4.95;;;;;;;;;;4995837;28;20045;-63
2023/07/10 01:26:06;;;;;;;8.23;5.05;;;;;;;;;;5004181;28;20486;-64
2023/07/10 01:28:33;;;;;;;9.15;5.03;;;;;;;;;;5002345;28;20045;-61
2023/07/10 01:30:59;;;;;;;7.53;5.15;;;;;;;;;;5012713;28;20448;-62
2023/07/10 01:33:29;;;;;;;7.67;4.83;;;;;;;;;;5009309;28;20109;-64
2023/07/10 01:35:55;;;;;;;8.50;5.72;;;;;;;;;;5002348;28;20029;-62
2023/07/10 01:38:26;;;;;;;8.27;5.10;;;;;;;;;;5011625;28;20029;-64
2023/07/10 01:40:53;;;;;;;8.55;4.80;;;;;;;;;;5004031;28;20064;-63
2023/07/10 01:43:18;;;;;;;8.85;5.03;;;;;;;;;;4996625;28;20386;-65
2023/07/10 01:45:44;;;;;;;10.37;4.90;;;;;;;;;;5011738;28;20033;-64
2023/07/10 01:48:10;;;;;;;10.25;5.18;;;;;;;;;;5005017;28;20164;-63
2023/07/10 01:50:35;;;;;;;7.65;4.43;;;;;;;;;;4998208;28;20100;-64
2023/07/10 01:53:00;;;;;;;8.98;4.05;;;;;;;;;;4996095;28;20069;-65
2023/07/10 01:55:27;;;;;;;8.10;4.80;;;;;;;;;;5010135;28;20041;-62
2023/07/10 01:57:52;;;;;;;7.35;4.60;;;;;;;;;;4995424;28;20057;-64
2023/07/10 02:00:17;;;;;;;8.07;4.05;;;;;;;;;;4993563;28;20467;-62
2023/07/10 02:02:43;;;;;;;11.07;4.23;;;;;;;;;;5009984;28;20030;-64
2023/07/10 02:05:08;;;;;;;9.38;4.00;;;;;;;;;;5012222;28;20044;-64
2023/07/10 02:07:33;;;;;;;9.77;4.70;;;;;;;;;;4997877;28;20410;-64
2023/07/10 02:09:58;;;;;;;8.70;4.40;;;;;;;;;;5007296;28;20104;-64
2023/07/10 02:12:23;;;;;;;7.38;4.13;;;;;;;;;;5008035;28;20034;-66
2023/07/10 02:14:48;;;;;;;7.40;4.72;;;;;;;;;;5003712;28;20041;-63
2023/07/10 02:17:14;;;;;;;10.73;4.83;;;;;;;;;;4996550;28;20088;-65
2023/07/10 02:19:39;;;;;;;8.48;4.55;;;;;;;;;;4999171;28;20106;-64
2023/07/10 02:22:04;;;;;;;11.80;5.00;;;;;;;;;;4995667;28;20134;-64
2023/07/10 02:24:29;;;;;;;7.85;4.50;;;;;;;;;;4992818;28;20029;-64
2023/07/10 02:26:54;;;;;;;8.52;4.80;;;;;;;;;;5004680;28;20380;-64
2023/07/10 02:29:20;;;;;;;10.50;4.73;;;;;;;;;;5004464;28;20064;-65
2023/07/10 02:31:45;;;;;;;7.77;4.63;;;;;;;;;;4996737;28;20478;-64
2023/07/10 02:34:10;;;;;;;10.02;5.45;;;;;;;;;;4991764;28;20557;-64
2023/07/10 02:36:35;;;;;;;8.48;5.07;;;;;;;;;;4995986;28;20049;-63
2023/07/10 02:39:00;;;;;;;9.85;5.30;;;;;;;;;;5010352;28;20385;-65
2023/07/10 02:41:25;;;;;;;8.37;4.73;;;;;;;;;;5011610;28;20014;-65
2023/07/10 02:43:51;;;;;;;8.27;5.05;;;;;;;;;;5008997;28;20465;-62
2023/07/10 02:46:16;;;;;;;7.43;4.83;;;;;;;;;;5011222;28;20030;-64
2023/07/10 02:48:41;;;;;;;11.17;4.70;;;;;;;;;;5011169;28;20148;-61
2023/07/10 02:51:06;;;;;;;10.52;4.60;;;;;;;;;;5011058;28;21038;-64
2023/07/10 02:53:32;;;;;;;7.65;5.00;;;;;;;;;;5010794;28;20226;-64
2023/07/10 02:55:57;;;;;;;10.05;5.15;;;;;;;;;;5011200;28;20026;-62
2023/07/10 02:58:22;;;;;;;8.65;5.32;;;;;;;;;;5011667;28;20439;-63
2023/07/10 03:00:54;;;;;;;10.63;4.95;;;;;;;;;;5008915;28;20014;-62
2023/07/10 03:03:19;;;;;;;;;;;;;;;;;;5011281;28;20104;-63
2023/07/10 03:05:51;;;;;;;9.00;4.82;;;;;;;;;;5010241;28;20059;-63
2023/07/10 03:08:16;;;;;;;8.05;4.97;;;;;;;;;;5022819;28;20022;-63
2023/07/10 03:10:41;;;;;;;13.00;4.85;;;;;;;;;;5011183;28;20040;-65
2023/07/10 03:13:07;;;;;;;8.90;5.20;;;;;;;;;;5021622;28;20033;-64
2023/07/10 03:15:32;;;;;;;7.53;4.85;;;;;;;;;;5031139;28;20623;-62
2023/07/10 03:17:57;;;;;;;10.40;5.03;;;;;;;;;;5013972;28;20018;-63
2023/07/10 03:20:22;;;;;;;8.70;4.68;;;;;;;;;;5011078;28;20163;-63
2023/07/10 03:22:47;;;;;;;8.85;4.72;;;;;;;;;;5011014;28;20474;-62
2023/07/10 03:25:12;;;;;;;8.55;4.90;;;;;;;;;;5011606;28;20014;-64
2023/07/10 03:27:37;;;;;;;9.15;4.60;;;;;;;;;;5011316;28;20076;-63
2023/07/10 03:30:03;;;;;;;8.73;4.68;;;;;;;;;;5011362;28;20489;-62
2023/07/10 03:32:28;;;;;;;8.00;4.65;;;;;;;;;;5010377;28;20057;-63
2023/07/10 03:34:55;;;;;;;8.50;4.77;;;;;;;;;;5007900;28;20040;-63
2023/07/10 03:37:20;;;;;;;12.30;5.18;;;;;;;;;;5015492;28;20013;-63
2023/07/10 03:39:45;;;;;;;7.60;5.00;;;;;;;;;;5011143;28;20017;-61
2023/07/10 03:42:11;;;;;;;10.70;5.33;;;;;;;;;;5005571;28;20552;-62
2023/07/10 03:44:36;;;;;;;7.90;4.88;;;;;;;;;;5010829;28;20029;-62
2023/07/10 03:47:01;;;;;;;8.60;5.03;;;;;;;;;;5008229;28;20356;-61
2023/07/10 03:49:26;;;;;;;9.88;5.28;;;;;;;;;;5009856;28;20065;-62
2023/07/10 03:51:52;;;;;;;11.32;5.70;;;;;;;;;;5010913;28;20061;-62
2023/07/10 03:54:17;;;;;;;9.63;5.23;;;;;;;;;;5010305;28;20018;-64
2023/07/10 03:56:42;;;;;;;8.97;5.00;;;;;;;;;;4996652;28;20042;-64
2023/07/10 03:59:08;;;;;;;8.40;4.80;;;;;;;;;;5000739;28;20049;-63
2023/07/10 04:01:33;;;;;;;8.15;4.78;;;;;;;;;;5009187;28;20033;-62
2023/07/10 04:03:58;;;;;;;10.93;5.45;;;;;;;;;;5005626;28;20032;-62
2023/07/10 04:06:23;;;;;;;8.87;4.97;;;;;;;;;;5010974;28;20033;-63
2023/07/10 04:08:48;;;;;;;8.53;5.03;;;;;;;;;;5011304;28;20049;-63
2023/07/10 04:11:15;;;;;;;8.98;4.55;;;;;;;;;;5013268;28;20505;-61
2023/07/10 04:13:41;;;;;;;9.90;5.00;;;;;;;;;;5012774;28;20442;-62
2023/07/10 04:16:15;;;;;;;9.70;4.60;;;;;;;;;;5013330;28;20037;-61
2023/07/10 04:18:41;;;;;;;8.52;5.13;;;;;;;;;;5014831;28;20025;-62
2023/07/10 04:21:08;;;;;;;9.50;5.47;;;;;;;;;;5014276;28;20041;-62
2023/07/10 04:23:33;;;;;;;7.38;4.72;;;;;;;;;;5014128;28;20020;-63
2023/07/10 04:25:58;;;;;;;8.18;5.07;;;;;;;;;;5013480;28;20021;-62
2023/07/10 04:28:24;;;;;;;8.07;4.90;;;;;;;;;;5013896;28;20045;-62
2023/07/10 04:30:50;;;;;;;8.18;5.05;;;;;;;;;;5013872;28;20029;-63
2023/07/10 04:33:15;;;;;;;8.23;5.03;;;;;;;;;;5011739;28;20164;-63
2023/07/10 04:35:41;;;;;;;7.93;4.68;;;;;;;;;;5014322;28;20076;-62
2023/07/10 04:38:06;;;;;;;9.38;4.88;;;;;;;;;;5012991;28;20021;-62
2023/07/10 04:40:31;;;;;;;10.65;5.20;;;;;;;;;;5014038;28;20022;-63
2023/07/10 04:42:57;;;;;;;6.40;4.30;;;;;;;;;;5011616;28;20064;-62
2023/07/10 04:45:22;;;;;;;8.50;5.30;;;;;;;;;;5013435;28;20118;-63
2023/07/10 04:47:47;;;;;;;7.57;5.10;;;;;;;;;;5011905;28;20116;-64
2023/07/10 04:50:12;;;;;;;8.77;4.93;;;;;;;;;;5011255;28;20115;-63
2023/07/10 04:52:37;;;;;;;8.05;4.32;;;;;;;;;;5015272;28;21795;-63
2023/07/10 04:55:03;;;;;;;9.60;4.75;;;;;;;;;;5014365;28;20052;-62
2023/07/10 04:57:28;;;;;;;8.30;4.97;;;;;;;;;;5011520;28;20053;-64
2023/07/10 04:59:53;;;;;;;8.15;4.72;;;;;;;;;;5013827;28;20018;-63
2023/07/10 05:02:19;;;;;;;10.47;5.00;;;;;;;;;;5011282;28;20166;-64
2023/07/10 05:04:44;;;;;;;9.40;5.00;;;;;;;;;;5010828;28;20640;-62
2023/07/10 05:07:09;;;;;;;9.07;5.20;;;;;;;;;;5012357;28;20029;-61
2023/07/10 05:09:35;;;;;;;8.77;4.80;;;;;;;;;;5010382;28;20030;-64
2023/07/10 05:12:00;;;;;;;9.90;4.80;;;;;;;;;;5001693;28;20022;-64
2023/07/10 05:14:25;;;;;;;;;;;;;;;;;;5005121;28;20034;-65
2023/07/10 05:16:50;;;;;;;8.50;5.30;;;;;;;;;;4995691;28;20385;-65
2023/07/10 05:19:16;;;;;;;7.63;4.60;;;;;;;;;;4991228;28;20537;-65
2023/07/10 05:21:41;;;;;;;;;;;;;;;;;;4999542;28;20032;-65
2023/07/10 05:24:06;;;;;;;7.63;4.75;;;;;;;;;;5009044;28;19918;-66
2023/07/10 05:26:31;;;;;;;8.48;5.00;;;;;;;;;;5002886;28;20434;-64
2023/07/10 05:28:56;;;;;;;8.48;4.68;;;;;;;;;;5008608;28;20058;-66
2023/07/10 05:31:21;;;;;;;7.73;5.00;;;;;;;;;;5005951;28;20034;-64
2023/07/10 05:33:47;;;;;;;8.18;5.18;;;;;;;;;;4998952;28;20465;-67
2023/07/10 05:36:16;;;;;;;11.50;5.70;;;;;;;;;;5001404;28;20105;-67
2023/07/10 05:38:42;;;;;;;9.63;5.43;;;;;;;;;;5004235;28;20026;-63
2023/07/10 05:41:08;;;;;;;8.18;5.00;;;;;;;;;;5004446;28;20030;-64
2023/07/10 05:43:34;;;;;;;9.20;5.35;;;;;;;;;;5006120;28;20030;-66
2023/07/10 05:45:59;;;;;;;11.23;5.25;;;;;;;;;;4997711;28;20037;-66
2023/07/10 05:48:25;;;;;;;10.38;5.00;;;;;;;;;;5007552;28;20049;-65
2023/07/10 05:50:50;;;;;;;10.35;5.20;;;;;;;;;;5009406;28;20061;-64
2023/07/10 05:53:16;;;;;;;12.15;5.40;;;;;;;;;;5003957;28;20116;-64
2023/07/10 05:55:49;;;;;;;11.20;5.25;;;;;;;;;;4991531;28;20072;-65
2023/07/10 05:58:15;;;;;;;11.77;5.78;;;;;;;;;;5002722;28;20100;-65
2023/07/10 06:00:40;;;;;;;9.60;5.90;;;;;;;;;;4998637;28;20493;-65
2023/07/10 06:03:06;;;;;;;9.40;5.22;;;;;;;;;;5003813;28;20021;-65
2023/07/10 06:05:31;;;;;;;9.47;4.83;;;;;;;;;;5005288;28;20104;-64
2023/07/10 06:07:56;;;;;;;9.30;5.63;;;;;;;;;;5010484;28;20501;-63
2023/07/10 06:10:21;;;;;;;8.40;5.75;;;;;;;;;;5008781;28;20053;-65
2023/07/10 06:12:46;;;;;;;10.20;5.45;;;;;;;;;;5011910;28;20072;-64
2023/07/10 06:15:11;;;;;;;8.90;5.40;;;;;;;;;;5007349;28;20077;-64
2023/07/10 06:17:37;;;;;;;8.63;5.17;;;;;;;;;;5000960;28;20026;-66
2023/07/10 06:20:02;;;;;;;11.40;6.03;;;;;;;;;;5006829;28;20025;-66
2023/07/10 06:22:27;;;;;;;9.75;5.80;;;;;;;;;;4994845;28;20026;-67
2023/07/10 06:24:53;;;;;;;11.75;6.50;;;;;;;;;;4997242;28;20371;-63
2023/07/10 06:27:18;;;;;;;10.95;5.35;;;;;;;;;;4996161;28;20027;-66
2023/07/10 06:29:43;;;;;;;9.57;5.10;;;;;;;;;;4998316;28;20049;-64
2023/07/10 06:32:08;;;;;;;9.27;5.10;;;;;;;;;;5008454;28;20040;-66
2023/07/10 06:34:33;;;;;;;10.60;5.70;;;;;;;;;;5009449;28;21046;-65
2023/07/10 06:36:58;;;;;;;8.43;5.00;;;;;;;;;;5008018;28;20030;-65
2023/07/10 06:39:26;;;;;;;9.45;5.60;;;;;;;;;;4998917;28;20018;-65
2023/07/10 06:41:51;;;;;;;10.40;5.25;;;;;;;;;;4996085;28;20038;-66
2023/07/10 06:44:16;;;;;;;7.47;4.80;;;;;;;;;;4991987;28;20022;-66
2023/07/10 06:46:41;;;;;;;8.85;5.00;;;;;;;;;;4999077;28;20029;-64
2023/07/10 06:49:06;;;;;;;8.53;4.90;;;;;;;;;;5008036;28;20049;-65
2023/07/10 06:51:31;;;;;;;10.35;5.15;;;;;;;;;;5004904;28;20033;-65
2023/07/10 06:53:57;;;;;;;9.40;4.93;;;;;;;;;;5000414;28;20026;-65
2023/07/10 06:56:22;;;;;;;9.67;5.00;;;;;;;;;;5004872;28;20445;-62
2023/07/10 06:58:47;;;;;;;8.52;4.63;;;;;;;;;;4998970;28;20025;-61
2023/07/10 07:01:12;;;;;;;7.27;4.47;;;;;;;;;;5005830;28;20117;-61
2023/07/10 07:03:40;;;;;;;7.47;4.43;;;;;;;;;;5010812;28;20549;-61
2023/07/10 07:06:06;;;;;;;9.73;5.20;;;;;;;;;;5011326;28;20022;-62
2023/07/10 07:08:32;;;;;;;;;;;;;;;;;;5012175;28;20113;-63
2023/07/10 07:10:57;;;;;;;8.27;4.82;;;;;;;;;;5005904;28;20227;-62
2023/07/10 07:13:22;;;;;;;;;;;;;;;;;;5008430;28;20032;-61
2023/07/10 07:15:48;;;;;;;9.18;5.30;;;;;;;;;;5011798;28;19905;-61
2023/07/10 07:18:13;;;;;;;;;;;;;;;;;;5012134;28;20080;-60
2023/07/10 07:20:38;;;;;;;10.48;4.90;;;;;;;;;;5011697;28;19913;-61
2023/07/10 07:23:03;;;;;;;10.32;5.00;;;;;;;;;;5010640;28;20156;-62
2023/07/10 07:25:28;;;;;;;;;;;;;;;;;;5011631;28;20092;-60
2023/07/10 07:27:53;;;;;;;8.63;4.93;;;;;;;;;;5008406;28;19913;-60
2023/07/10 07:30:19;;;;;;;7.45;5.18;;;;;;;;;;5009025;28;20041;-62
2023/07/10 07:32:45;;;;;;;9.73;5.80;;;;;;;;;;5005945;28;20484;-61
2023/07/10 07:35:10;;;;;;;;;;;;;;;;;;5011662;28;20024;-60
2023/07/10 07:37:35;;;;;;;9.13;5.22;;;;;;;;;;5010906;28;19906;-61
2023/07/10 07:40:01;;;;;;;;;;;;;;;;;;5011501;28;20030;-60
2023/07/10 07:42:27;;;;;;;10.93;5.32;;;;;;;;;;5023695;28;19905;-59
2023/07/10 07:44:52;;;;;;;;;;;;;;;;;;5007826;28;20026;-61
2023/07/10 07:47:18;;;;;;;7.80;4.27;;;;;;;;;;5009571;28;19992;-61
2023/07/10 07:49:43;;;;;;;7.57;4.57;;;;;;;;;;5011382;28;20010;-61
2023/07/10 07:52:08;;;;;;;;;;;;;;;;;;5011466;28;20029;-62
2023/07/10 07:54:33;;;;;;;8.05;4.53;;;;;;;;;;5005994;28;20020;-61
2023/07/10 07:56:58;;;;;;;;;;;;;;;;;;5011347;28;20425;-62
2023/07/10 07:59:23;;;;;;;7.43;3.90;;;;;;;;;;5010902;28;19963;-62
2023/07/10 08:01:49;;;;;;;7.18;4.30;;;;;;;;;;5011647;28;20109;-60
2023/07/10 08:04:15;;;;;;;7.97;4.35;;;;;;;;;;5010409;28;20117;-60
2023/07/10 08:06:40;;;;;;;;;;;;;;;;;;5011372;28;20108;-60
2023/07/10 08:09:05;;;;;;;9.48;4.72;;;;;;;;;;5007816;28;20024;-63
2023/07/10 08:11:30;;;;;;;;;;;;;;;;;;5010771;28;20037;-61
2023/07/10 08:13:55;;;;;;;7.47;4.88;;;;;;;;;;5010173;28;19905;-63
2023/07/10 08:16:20;;;;;;;;;;;;;;;;;;5011429;28;20022;-60
2023/07/10 08:18:46;;;;;;;8.75;5.80;;;;;;;;;;5011173;28;20285;-62
2023/07/10 08:21:14;;;;;;;8.25;4.32;;;;;;;;;;5009807;28;20067;-60
2023/07/10 08:23:39;;;;;;;7.50;4.57;;;;;;;;;;5008932;28;20493;-60
2023/07/10 08:26:04;;;;;;;;;;;;;;;;;;5009960;28;20105;-62
2023/07/10 08:28:29;;;;;;;8.45;4.40;;;;;;;;;;5010867;28;19905;-62
2023/07/10 08:30:55;;;;;;;;;;;;;;;;;;5010999;28;20389;-60
2023/07/10 08:33:20;;;;;;;7.53;4.60;;;;;;;;;;5009960;28;20023;-61
2023/07/10 08:35:45;;;;;;;;;;;;;;;;;;5009359;28;20026;-63
2023/07/10 08:38:10;;;;;;;9.60;4.25;;;;;;;;;;5010239;28;19984;-62
2023/07/10 08:40:36;;;;;;;8.13;4.93;;;;;;;;;;5010573;28;20409;-63
2023/07/10 08:43:06;;;;;;;7.25;4.93;;;;;;;;;;5010116;28;20084;-59
2023/07/10 08:45:35;;;;;;;7.72;4.68;;;;;;;;;;5010426;28;20025;-62
2023/07/10 08:48:06;;;;;;;7.53;4.60;;;;;;;;;;5010478;28;20068;-59
2023/07/10 08:50:31;;;;;;;7.43;4.47;;;;;;;;;;5009235;28;20014;-63
2023/07/10 08:52:56;;;;;;;;;;;;;;;;;;5002364;28;20085;-61
2023/07/10 08:55:36;;;;;;;9.10;4.93;;;;;;;;;;5008498;28;19984;-62
2023/07/10 08:58:02;;;;;;;7.10;4.90;;;;;;;;;;5010445;28;20041;-62
2023/07/10 09:00:27;;;;;;;;;;;;;;;;;;5010827;28;20030;-61
2023/07/10 09:02:58;;;;;;;7.35;4.68;;;;;;;;;;5013101;28;20377;-60
2023/07/10 09:05:29;;;;;;;10.20;4.70;;;;;;;;;;5011505;28;20026;-62
2023/07/10 09:07:55;;;;;;;9.30;4.53;;;;;;;;;;5012359;28;20072;-61
2023/07/10 09:10:22;;;;;;;9.15;5.30;;;;;;;;;;5013575;28;20033;-60
2023/07/10 09:12:49;;;;;;;8.18;4.38;;;;;;;;;;5013002;28;20028;-62
2023/07/10 09:15:16;;;;;;;6.75;4.70;;;;;;;;;;5013536;28;20010;-61
2023/07/10 09:17:57;;;;;;;12.73;4.88;;;;;;;;;;5013472;28;20111;-62
2023/07/10 09:20:24;;;;;;;7.60;4.63;;;;;;;;;;5013732;28;20026;-61
2023/07/10 09:22:52;;;;;;;7.40;4.40;;;;;;;;;;5011946;28;20014;-59
2023/07/10 09:25:20;;;;;;;8.02;5.10;;;;;;;;;;5013650;28;20101;-61
2023/07/10 09:27:45;;;;;;;6.25;4.40;;;;;;;;;;5013433;28;20163;-62
2023/07/10 09:30:21;;;;;;;6.43;4.22;;;;;;;;;;5013359;28;20021;-62
2023/07/10 09:32:49;;;;;;;7.88;4.43;;;;;;;;;;5012945;28;20083;-61
2023/07/10 09:35:15;;;;;;;8.30;4.50;;;;;;;;;;5012812;28;20025;-62
2023/07/10 09:37:40;;;;;;;8.00;4.72;;;;;;;;;;5012614;28;20034;-60
2023/07/10 09:40:20;;;;;;;8.07;4.95;;;;;;;;;;5013027;28;20038;-62
2023/07/10 09:42:46;;;;;;;9.30;4.97;;;;;;;;;;5009577;28;20781;-62
2023/07/10 09:45:12;;;;;;;7.32;4.65;;;;;;;;;;5011258;28;20124;-63
2023/07/10 09:47:43;;;;;;;8.27;4.82;;;;;;;;;;5013648;28;20041;-62
2023/07/10 09:50:12;;;;;;;7.78;4.45;;;;;;;;;;5012956;28;20022;-61
2023/07/10 09:52:38;;;;;;;11.05;4.75;;;;;;;;;;5009318;28;20030;-60
2023/07/10 09:55:13;;;;;;;7.47;4.60;;;;;;;;;;5012511;28;20030;-61
2023/07/10 09:57:58;;;;;;;6.68;4.50;;;;;;;;;;5012734;28;20057;-61
2023/07/10 10:00:23;;;;;;;7.93;4.80;;;;;;;;;;5012933;28;20029;-63
2023/07/10 10:03:09;;;;;;;7.82;4.82;;;;;;;;;;5012499;28;20394;-61
2023/07/10 10:05:39;;;;;;;6.80;4.20;;;;;;;;;;5011021;28;20037;-61
2023/07/10 10:08:18;;;;;;;8.05;4.45;;;;;;;;;;4994588;28;20025;-60
2023/07/10 10:10:43;;;;;;;6.85;4.50;;;;;;;;;;5005404;28;20021;-63
2023/07/10 10:13:11;;;;;;;7.68;4.90;;;;;;;;;;5011158;28;20393;-61
2023/07/10 10:15:54;;;;;;;8.05;4.90;;;;;;;;;;5012501;28;20440;-60
2023/07/10 10:18:35;;;;;;;8.90;4.63;;;;;;;;;;5010706;28;20088;-61
2023/07/10 10:21:02;;;;;;;7.78;4.72;;;;;;;;;;5008505;28;20506;-61
2023/07/10 10:23:31;;;;;;;9.60;4.68;;;;;;;;;;5012127;28;20022;-62
2023/07/10 10:26:05;;;;;;;8.02;4.68;;;;;;;;;;5012154;28;20489;-61
2023/07/10 10:28:38;;;;;;;10.32;5.00;;;;;;;;;;5012191;28;20052;-61
2023/07/10 10:31:07;;;;;;;7.97;4.97;;;;;;;;;;5011939;28;20076;-63
2023/07/10 10:33:54;;;;;;;6.65;4.63;;;;;;;;;;5011673;28;20029;-61
2023/07/10 10:36:39;;;;;;;7.68;4.80;;;;;;;;;;5009645;28;20033;-63
2023/07/10 10:39:10;;;;;;;9.60;4.80;;;;;;;;;;5007562;28;20026;-61
2023/07/10 10:41:35;;;;;;;8.52;5.15;;;;;;;;;;5012395;28;20022;-61
2023/07/10 10:44:21;;;;;;;8.48;4.70;;;;;;;;;;5011565;28;20024;-59
2023/07/10 10:46:58;;;;;;;9.60;5.15;;;;;;;;;;5008176;28;20026;-63
2023/07/10 10:49:23;;;;;;;9.00;5.40;;;;;;;;;;5009164;28;20026;-61
2023/07/10 10:51:54;;;;;;;9.03;5.17;;;;;;;;;;5005445;28;20026;-61
2023/07/10 10:54:25;;;;;;;7.25;4.93;;;;;;;;;;5011383;28;20058;-63
2023/07/10 10:57:08;;;;;;;8.15;5.22;;;;;;;;;;5011640;28;20030;-62
2023/07/10 10:59:46;;;;;;;9.65;4.93;;;;;;;;;;5011877;28;20029;-62
2023/07/10 11:02:41;;;;;;;12.98;5.45;;;;;;;;;;5009074;28;20109;-62
2023/07/10 11:05:17;;;;;;;8.77;5.25;;;;;;;;;;5011537;28;20018;-61
2023/07/10 11:07:44;;;;;;;8.82;5.10;;;;;;;;;;5011703;28;20026;-60
2023/07/10 11:10:15;;;;;;;11.50;5.22;;;;;;;;;;5011678;28;20026;-62
2023/07/10 11:12:40;;;;;;;10.88;5.75;;;;;;;;;;5010877;28;20018;-62
2023/07/10 11:15:17;;;;;;;14.00;6.20;;;;;;;;;;5009478;28;20505;-62
2023/07/10 11:17:44;;;;;;;10.23;5.80;;;;;;;;;;5008493;28;20032;-63
2023/07/10 11:20:12;;;;;;;10.18;6.28;;;;;;;;;;5010712;28;20034;-62
2023/07/10 11:22:47;;;;;;;11.98;6.57;;;;;;;;;;5010907;28;20017;-62
2023/07/10 11:25:27;;;;;;;10.88;6.35;;;;;;;;;;5012628;28;20053;-61
2023/07/10 11:27:52;;;;;;;12.80;6.78;;;;;;;;;;5008481;28;20026;-62
2023/07/10 11:30:28;;;;;;;11.17;7.00;;;;;;;;;;5010849;28;20097;-62
2023/07/10 11:32:57;;;;;;;10.98;6.15;;;;;;;;;;5001293;28;20030;-62
2023/07/10 11:35:22;;;;;;;12.23;6.70;;;;;;;;;;5010428;28;20017;-62
2023/07/10 11:37:47;;;;;;;13.15;6.80;;;;;;;;;;5018116;28;20018;-60
2023/07/10 11:40:28;;;;;;;12.93;6.53;;;;;;;;;;5009457;28;20474;-61
2023/07/10 11:42:54;;;;;;;12.90;6.47;;;;;;;;;;5008375;28;20500;-61
2023/07/10 11:45:25;;;;;;;12.73;6.85;;;;;;;;;;5010897;28;20026;-61
2023/07/10 11:47:50;;;;;;;12.13;6.88;;;;;;;;;;5010979;28;20132;-61
2023/07/10 11:50:21;;;;;;;11.85;6.43;;;;;;;;;;5015239;28;20030;-60
2023/07/10 11:53:03;;;;;;;10.73;6.53;;;;;;;;;;5009002;28;20022;-61
2023/07/10 11:55:29;;;;;;;12.68;6.72;;;;;;;;;;5009305;28;20018;-62
2023/07/10 11:58:10;;;;;;;11.30;6.50;;;;;;;;;;5009167;28;20021;-62
2023/07/10 12:00:35;;;;;;;10.68;6.03;;;;;;;;;;5010563;28;20025;-61
2023/07/10 12:03:01;;;;;;;11.80;6.60;;;;;;;;;;5010197;28;20030;-62
2023/07/10 12:05:32;;;;;;;10.60;7.00;;;;;;;;;;5010366;28;20816;-63
2023/07/10 12:08:15;;;;;;;12.85;6.40;;;;;;;;;;5010836;28;20029;-63
2023/07/10 12:10:42;;;;;;;10.77;6.30;;;;;;;;;;5003739;28;20381;-63
2023/07/10 12:13:15;;;;;;;10.85;6.18;;;;;;;;;;5009882;28;20037;-61
2023/07/10 12:15:41;;;;;;;11.70;6.03;;;;;;;;;;5002782;28;20129;-61
2023/07/10 12:18:07;;;;;;;10.63;6.43;;;;;;;;;;5010722;28;20093;-63
2023/07/10 12:20:32;;;;;;;13.15;6.70;;;;;;;;;;5010690;28;20393;-61
2023/07/10 12:23:04;;;;;;;10.10;5.87;;;;;;;;;;5010106;28;20026;-62
2023/07/10 12:25:29;;;;;;;10.13;6.57;;;;;;;;;;5013909;28;20459;-61
2023/07/10 12:27:56;;;;;;;9.52;5.68;;;;;;;;;;5012234;28;20227;-63
2023/07/10 12:30:22;;;;;;;11.52;6.72;;;;;;;;;;5011772;28;20113;-62
2023/07/10 12:32:51;;;;;;;10.90;6.35;;;;;;;;;;5008975;28;20105;-63
2023/07/10 12:35:35;;;;;;;9.73;6.00;;;;;;;;;;5006490;28;20026;-62
2023/07/10 12:38:01;;;;;;;11.10;6.38;;;;;;;;;;5009752;28;20034;-60
2023/07/10 12:40:28;;;;;;;12.18;6.20;;;;;;;;;;5013912;28;20026;-62
2023/07/10 12:42:53;;;;;;;9.18;6.03;;;;;;;;;;5012004;28;20137;-61
2023/07/10 12:45:20;;;;;;;10.67;6.10;;;;;;;;;;5004560;28;20054;-62
2023/07/10 12:47:52;;;;;;;9.95;6.05;;;;;;;;;;5018298;28;20050;-62
2023/07/10 12:50:19;;;;;;;10.05;5.65;;;;;;;;;;5009881;28;20076;-63
2023/07/10 12:52:44;;;;;;;9.93;6.40;;;;;;;;;;5016525;28;20053;-60
2023/07/10 12:55:14;;;;;;;11.63;6.00;;;;;;;;;;5017448;28;20080;-62
2023/07/10 12:57:40;;;;;;;10.32;5.68;;;;;;;;;;5005997;28;20120;-62
2023/07/10 13:00:06;;;;;;;10.13;5.90;;;;;;;;;;5014459;28;20104;-61
2023/07/10 13:02:38;;;;;;;11.85;6.30;;;;;;;;;;5013652;28;20018;-61
2023/07/10 13:05:16;;;;;;;8.65;5.70;;;;;;;;;;5017981;28;20049;-61
2023/07/10 13:07:42;;;;;;;10.88;6.05;;;;;;;;;;5013438;28;20072;-61
2023/07/10 13:10:13;;;;;;;11.93;6.82;;;;;;;;;;5014206;28;20377;-60
2023/07/10 13:12:39;;;;;;;11.27;5.97;;;;;;;;;;5021135;28;20030;-61
2023/07/10 13:15:05;;;;;;;8.35;6.03;;;;;;;;;;5015884;28;20084;-62
2023/07/10 13:17:34;;;;;;;12.00;6.22;;;;;;;;;;5014411;28;20033;-64
2023/07/10 13:19:59;;;;;;;10.15;7.00;;;;;;;;;;5011049;28;20022;-61
2023/07/10 13:22:24;;;;;;;11.00;7.27;;;;;;;;;;5017764;28;20025;-61
2023/07/10 13:24:49;;;;;;;14.38;8.52;;;;;;;;;;5013944;28;20014;-63
2023/07/10 13:27:16;;;;;;;13.63;8.60;;;;;;;;;;5015894;28;20026;-61
2023/07/10 13:29:41;;;;;;;13.43;9.07;;;;;;;;;;5012932;28;20045;-62
2023/07/10 13:32:10;;;;;;;11.53;8.80;;;;;;;;;;5011244;28;20050;-61
2023/07/10 13:34:35;;;;;;;14.05;9.40;;;;;;;;;;5009752;28;20021;-61
2023/07/10 13:37:01;;;;;;;13.80;8.53;;;;;;;;;;5009463;28;20041;-61
2023/07/10 13:39:26;;;;;;;10.70;8.68;;;;;;;;;;5009679;28;20468;-61
2023/07/10 13:41:53;;;;;;;15.13;8.85;;;;;;;;;;5009352;28;20022;-60
2023/07/10 13:44:18;;;;;;;13.30;9.25;;;;;;;;;;5011584;28;20017;-63
2023/07/10 13:46:43;;;;;;;15.10;9.90;;;;;;;;;;5007879;28;20075;-62
2023/07/10 13:49:10;;;;;;;16.33;10.35;;;;;;;;;;5009545;28;20026;-60
2023/07/10 13:51:35;;;;;;;14.43;8.43;;;;;;;;;;5009214;28;20041;-63
2023/07/10 13:54:01;;;;;;;12.70;8.65;;;;;;;;;;5008978;28;20009;-62
2023/07/10 13:56:30;;;;;;;13.45;7.55;;;;;;;;;;5009242;28;20037;-60
2023/07/10 13:58:56;;;;;;;10.20;5.85;;;;;;;;;;5007421;28;20665;-61
2023/07/10 14:01:22;;;;;;;8.30;5.47;;;;;;;;;;5009658;28;20105;-61
2023/07/10 14:03:48;;;;;;;9.73;6.47;;;;;;;;;;5008375;28;20342;-61
2023/07/10 14:06:19;;;;;;;16.38;6.30;;;;;;;;;;5008294;28;20034;-60
2023/07/10 14:08:45;;;;;;;9.73;5.30;;;;;;;;;;5008991;28;20029;-61
2023/07/10 14:11:10;;;;;;;8.55;4.88;;;;;;;;;;5008989;28;20045;-62
2023/07/10 14:13:35;;;;;;;9.30;4.90;;;;;;;;;;5006092;28;20060;-60
2023/07/10 14:16:02;;;;;;;8.07;4.45;;;;;;;;;;5010467;28;20032;-61
2023/07/10 14:18:28;;;;;;;10.00;4.90;;;;;;;;;;5008237;28;20063;-61
2023/07/10 14:20:53;;;;;;;7.75;4.57;;;;;;;;;;5007677;28;20027;-60
2023/07/10 14:23:19;;;;;;;7.27;4.20;;;;;;;;;;5002642;28;20109;-63
2023/07/10 14:25:45;;;;;;;7.75;4.45;;;;;;;;;;5010306;28;20029;-61
2023/07/10 14:28:14;;;;;;;10.30;4.90;;;;;;;;;;5009295;28;20026;-62
2023/07/10 14:30:39;;;;;;;8.93;4.72;;;;;;;;;;5009730;28;20535;-62
2023/07/10 14:33:05;;;;;;;8.47;4.60;;;;;;;;;;5011420;28;20108;-62
2023/07/10 14:35:31;;;;;;;7.70;4.57;;;;;;;;;;5012463;28;20022;-62
2023/07/10 14:37:56;;;;;;;8.13;4.70;;;;;;;;;;5009883;28;20021;-60
2023/07/10 14:40:21;;;;;;;8.27;4.57;;;;;;;;;;5005795;28;20073;-62
2023/07/10 14:42:46;;;;;;;7.73;4.60;;;;;;;;;;5005913;28;20044;-61
2023/07/10 14:45:12;;;;;;;7.13;4.68;;;;;;;;;;5008188;28;20026;-62
2023/07/10 14:47:38;;;;;;;9.98;4.70;;;;;;;;;;5003909;28;20817;-62